createdAt,value
2023-04-06T00:05:36.601Z,8.70
2023-04-06T00:08:04.171Z,8.18
2023-04-06T00:10:32.040Z,8.68
2023-04-06T00:13:00.810Z,8.65
2023-04-06T00:15:28.642Z,7.82
2023-04-06T00:17:57.771Z,7.28
2023-04-06T00:20:26.095Z,7.68
2023-04-06T00:22:56.691Z,7.00
2023-04-06T00:25:24.733Z,8.95
2023-04-06T00:27:52.621Z,8.68
2023-04-06T00:30:20.901Z,8.95
2023-04-06T00:32:49.449Z,8.65
2023-04-06T00:35:18.809Z,9.40
2023-04-06T00:37:49.393Z,9.18
2023-04-06T00:40:21.327Z,9.32
2023-04-06T00:42:53.240Z,9.40
2023-04-06T00:45:21.328Z,8.95
2023-04-06T00:47:51.750Z,8.85
2023-04-06T00:50:19.891Z,9.57
2023-04-06T00:52:48.950Z,8.77
2023-04-06T00:57:52.434Z,9.48
2023-04-06T01:00:20.679Z,9.30
2023-04-06T01:02:56.424Z,9.52
2023-04-06T01:05:32.003Z,9.10
2023-04-06T01:08:04.138Z,8.77
2023-04-06T01:10:32.820Z,8.80
2023-04-06T01:13:12.669Z,9.18
2023-04-06T01:15:55.053Z,9.10
2023-04-06T01:18:30.922Z,8.07
2023-04-06T01:21:27.854Z,7.82
2023-04-06T01:24:22.496Z,7.63
2023-04-06T01:27:19.847Z,8.07
2023-04-06T01:30:20.573Z,7.40
2023-04-06T01:32:59.334Z,7.03
2023-04-06T01:35:45.852Z,7.80
2023-04-06T01:38:21.746Z,8.80
2023-04-06T01:40:51.129Z,7.60
2023-04-06T01:43:26.591Z,7.28
2023-04-06T01:46:09.558Z,7.53
2023-04-06T01:48:41.650Z,7.97
2023-04-06T01:51:19.913Z,8.70
2023-04-06T01:54:08.325Z,8.65
2023-04-06T01:57:18.326Z,7.82
2023-04-06T01:59:52.056Z,8.95
2023-04-06T02:02:43.061Z,9.07
2023-04-06T02:05:24.665Z,8.93
2023-04-06T02:07:57.806Z,9.23
2023-04-06T02:10:33.568Z,9.60
2023-04-06T02:13:06.853Z,8.27
2023-04-06T02:15:35.612Z,8.73
2023-04-06T02:18:03.613Z,8.50
2023-04-06T02:20:31.468Z,9.20
2023-04-06T02:23:01.755Z,8.50
2023-04-06T02:25:29.517Z,9.00
2023-04-06T02:27:57.133Z,8.35
2023-04-06T02:30:24.991Z,9.27
2023-04-06T02:32:52.944Z,9.90
2023-04-06T02:35:21.402Z,10.30
2023-04-06T02:37:55.739Z,9.77
2023-04-06T02:40:23.409Z,9.40
2023-04-06T02:42:51.023Z,10.10
2023-04-06T02:45:25.889Z,10.88
2023-04-06T02:47:53.813Z,9.88
2023-04-06T02:50:21.846Z,11.13
2023-04-06T02:52:57.539Z,11.48
2023-04-06T02:55:25.691Z,11.25
2023-04-06T02:57:53.516Z,11.02
2023-04-06T03:00:26.461Z,11.13
2023-04-06T03:02:54.430Z,11.68
2023-04-06T03:05:22.795Z,11.55
2023-04-06T03:07:51.096Z,11.35
2023-04-06T03:10:26.841Z,12.10
2023-04-06T03:12:54.618Z,11.30
2023-04-06T03:15:34.605Z,11.80
2023-04-06T03:18:13.355Z,11.82
2023-04-06T03:20:48.405Z,12.10
2023-04-06T03:23:22.006Z,12.18
2023-04-06T03:25:54.399Z,12.25
2023-04-06T03:28:22.973Z,13.02
2023-04-06T03:30:55.310Z,13.10
2023-04-06T03:33:39.502Z,12.52
2023-04-06T03:36:09.090Z,12.73
2023-04-06T03:38:41.578Z,12.80
2023-04-06T03:41:13.317Z,12.63
2023-04-06T03:43:47.267Z,13.02
2023-04-06T03:46:15.869Z,12.55
2023-04-06T03:48:51.191Z,12.70
2023-04-06T03:51:21.908Z,12.77
2023-04-06T03:53:49.681Z,12.40
2023-04-06T03:56:18.788Z,13.13
2023-04-06T03:58:47.557Z,13.48
2023-04-06T04:01:15.168Z,13.45
2023-04-06T04:03:43.465Z,14.32
2023-04-06T04:06:11.366Z,13.30
2023-04-06T04:08:41.565Z,14.18
2023-04-06T04:11:09.624Z,14.45
2023-04-06T04:13:37.334Z,14.13
2023-04-06T04:16:07.804Z,14.48
2023-04-06T04:18:37.882Z,14.33
2023-04-06T04:21:07.379Z,13.65
2023-04-06T04:23:36.733Z,14.45
2023-04-06T04:26:05.268Z,14.90
2023-04-06T04:28:33.915Z,14.70
2023-04-06T04:31:01.535Z,14.68
2023-04-06T04:33:32.629Z,16.25
2023-04-06T04:36:03.351Z,15.15
2023-04-06T04:38:38.180Z,14.73
2023-04-06T04:41:06.065Z,15.32
2023-04-06T04:43:36.184Z,15.68
2023-04-06T04:46:05.744Z,15.50
2023-04-06T04:48:40.900Z,14.48
2023-04-06T04:51:09.700Z,14.27
2023-04-06T04:54:07.081Z,15.43
2023-04-06T04:56:35.637Z,16.40
2023-04-06T04:59:22.516Z,15.77
2023-04-06T05:01:57.834Z,15.43
2023-04-06T05:04:38.869Z,16.13
2023-04-06T05:07:09.834Z,16.48
2023-04-06T05:09:40.573Z,16.05
2023-04-06T05:12:09.225Z,15.85
2023-04-06T05:14:47.641Z,16.52
2023-04-06T05:17:18.890Z,17.02
2023-04-06T05:19:49.024Z,15.85
2023-04-06T05:22:23.235Z,15.88
2023-04-06T05:25:03.026Z,16.65
2023-04-06T05:27:31.978Z,15.15
2023-04-06T05:30:06.644Z,16.33
2023-04-06T05:32:43.861Z,16.52
2023-04-06T05:35:13.179Z,16.77
2023-04-06T05:37:49.589Z,17.10
2023-04-06T05:40:18.831Z,17.48
2023-04-06T05:42:48.149Z,16.58
2023-04-06T05:45:18.752Z,16.98
2023-04-06T05:47:52.184Z,17.92
2023-04-06T05:50:28.528Z,17.10
2023-04-06T05:53:00.072Z,17.65
2023-04-06T05:55:33.200Z,19.20
2023-04-06T05:58:27.943Z,17.40
2023-04-06T06:01:00.733Z,17.55
2023-04-06T06:03:36.839Z,17.95
2023-04-06T06:06:05.769Z,18.05
2023-04-06T06:08:51.185Z,17.35
2023-04-06T06:11:19.886Z,17.15
2023-04-06T06:13:52.381Z,18.05
2023-04-06T06:16:21.264Z,18.10
2023-04-06T06:18:50.332Z,19.05
2023-04-06T06:21:19.168Z,18.23
2023-04-06T06:23:51.696Z,19.40
2023-04-06T06:26:23.061Z,17.70
2023-04-06T06:28:51.865Z,18.17
2023-04-06T06:31:23.752Z,17.27
2023-04-06T06:33:52.817Z,18.50
2023-04-06T06:36:21.640Z,17.23
2023-04-06T06:38:51.504Z,17.38
2023-04-06T06:41:21.842Z,17.65
2023-04-06T06:43:50.946Z,17.55
2023-04-06T06:46:19.959Z,17.10
2023-04-06T06:48:50.839Z,16.83
2023-04-06T06:51:19.840Z,17.30
2023-04-06T06:53:49.010Z,18.05
2023-04-06T06:56:18.556Z,17.33
2023-04-06T06:58:47.281Z,16.67
2023-04-06T07:01:15.720Z,17.02
2023-04-06T07:03:44.700Z,17.93
2023-04-06T07:06:12.540Z,17.75
2023-04-06T07:08:41.604Z,17.52
2023-04-06T07:11:10.357Z,17.88
2023-04-06T07:13:38.176Z,17.85
2023-04-06T07:16:06.157Z,17.90
2023-04-06T07:18:36.037Z,19.38
2023-04-06T07:21:04.558Z,17.70
2023-04-06T07:23:32.685Z,17.42
2023-04-06T07:26:00.852Z,17.45
2023-04-06T07:28:28.494Z,17.85
2023-04-06T07:30:56.995Z,17.48
2023-04-06T07:33:24.765Z,17.30
2023-04-06T07:35:58.517Z,17.48
2023-04-06T07:38:26.701Z,17.08
2023-04-06T07:40:54.753Z,16.92
2023-04-06T07:43:22.786Z,17.77
2023-04-06T07:45:50.437Z,17.42
2023-04-06T07:48:20.376Z,17.55
2023-04-06T07:50:48.630Z,16.25
2023-04-06T07:53:18.905Z,17.83
2023-04-06T07:55:48.555Z,16.10
2023-04-06T07:58:16.939Z,16.60
2023-04-06T08:00:45.312Z,16.92
2023-04-06T08:03:13.077Z,17.63
2023-04-06T08:05:40.798Z,17.42
2023-04-06T08:08:08.391Z,18.05
2023-04-06T08:10:36.205Z,17.10
2023-04-06T08:13:04.853Z,17.33
2023-04-06T08:15:32.882Z,17.10
2023-04-06T08:18:01.274Z,16.45
2023-04-06T08:20:29.410Z,16.17
2023-04-06T08:22:57.154Z,17.23
2023-04-06T08:25:26.340Z,17.92
2023-04-06T08:27:55.122Z,17.58
2023-04-06T08:30:25.528Z,17.65
2023-04-06T08:32:53.377Z,17.52
2023-04-06T08:35:21.203Z,18.30
2023-04-06T08:37:50.148Z,17.58
2023-04-06T08:40:19.598Z,16.95
2023-04-06T08:42:51.584Z,16.88
2023-04-06T08:48:10.882Z,16.98
2023-04-06T08:50:41.049Z,16.90
2023-04-06T08:53:09.357Z,16.63
2023-04-06T08:55:37.604Z,17.30
2023-04-06T08:58:06.149Z,16.50
2023-04-06T09:00:34.250Z,19.20
2023-04-06T09:03:02.064Z,16.73
2023-04-06T09:05:30.966Z,17.70
2023-04-06T09:07:58.851Z,16.55
2023-04-06T09:10:28.639Z,17.65
2023-04-06T09:13:04.927Z,17.38
2023-04-06T09:15:32.672Z,17.00
2023-04-06T09:18:00.822Z,17.35
2023-04-06T09:20:29.376Z,18.67
2023-04-06T09:22:57.508Z,16.90
2023-04-06T09:25:27.721Z,17.92
2023-04-06T09:28:03.487Z,18.65
2023-04-06T09:30:34.093Z,17.00
2023-04-06T09:33:02.263Z,18.23
2023-04-06T09:35:32.459Z,18.38
2023-04-06T09:38:23.382Z,18.08
2023-04-06T09:41:01.246Z,17.83
2023-04-06T09:43:30.456Z,17.98
2023-04-06T09:46:04.371Z,18.58
2023-04-06T09:48:33.005Z,18.38
2023-04-06T09:51:02.777Z,18.10
2023-04-06T09:53:33.117Z,19.17
2023-04-06T09:56:04.627Z,18.85
2023-04-06T09:58:36.043Z,18.40
2023-04-06T10:01:05.596Z,18.10
2023-04-06T10:03:38.809Z,18.23
2023-04-06T10:06:10.424Z,17.98
2023-04-06T10:08:41.824Z,18.70
2023-04-06T10:11:12.708Z,17.02
2023-04-06T10:13:40.573Z,18.48
2023-04-06T10:16:08.491Z,18.30
2023-04-06T10:18:36.369Z,18.13
2023-04-06T10:21:14.114Z,18.83
2023-04-06T10:23:52.520Z,18.02
2023-04-06T10:26:24.140Z,17.83
2023-04-06T10:28:52.295Z,17.83
2023-04-06T10:31:30.793Z,17.63
2023-04-06T10:34:03.898Z,17.27
2023-04-06T10:36:35.742Z,18.20
2023-04-06T10:39:04.803Z,17.27
2023-04-06T10:41:58.755Z,15.82
2023-04-06T10:44:26.531Z,16.25
2023-04-06T10:46:58.018Z,17.85
2023-04-06T10:49:27.856Z,16.50
2023-04-06T10:51:56.391Z,16.55
2023-04-06T10:54:28.751Z,15.45
2023-04-06T10:56:57.632Z,16.10
2023-04-06T10:59:26.473Z,15.93
2023-04-06T11:01:56.155Z,15.35
2023-04-06T11:04:24.743Z,16.17
2023-04-06T11:06:52.584Z,15.23
2023-04-06T11:09:30.373Z,15.52
2023-04-06T11:11:58.462Z,15.63
2023-04-06T11:14:27.900Z,14.85
2023-04-06T11:16:56.219Z,17.38
2023-04-06T11:19:24.524Z,14.93
2023-04-06T11:21:52.317Z,14.80
2023-04-06T11:24:21.348Z,12.57
2023-04-06T11:26:53.010Z,11.30
2023-04-06T11:29:22.117Z,11.13
2023-04-06T11:31:50.938Z,10.63
2023-04-06T11:34:20.150Z,10.75
2023-04-06T11:36:49.222Z,11.30
2023-04-06T11:39:27.651Z,10.85
2023-04-06T11:41:56.733Z,10.27
2023-04-06T11:44:36.671Z,10.25
2023-04-06T11:47:07.391Z,10.13
2023-04-06T11:49:38.759Z,10.68
2023-04-06T11:52:18.537Z,10.95
2023-04-06T11:54:50.067Z,9.52
2023-04-06T11:57:18.753Z,7.90
2023-04-06T11:59:51.211Z,9.35
2023-04-06T12:02:20.552Z,8.35
2023-04-06T12:04:51.377Z,7.82
2023-04-06T12:07:22.421Z,7.63
2023-04-06T12:09:49.953Z,6.63
2023-04-06T12:12:20.742Z,7.30
2023-04-06T12:14:49.443Z,8.10
2023-04-06T12:17:19.564Z,7.95
2023-04-06T12:19:49.092Z,7.75
2023-04-06T12:22:19.946Z,7.85
2023-04-06T12:24:48.432Z,7.97
2023-04-06T12:27:17.360Z,5.85
2023-04-06T12:29:45.021Z,7.30
2023-04-06T12:32:14.386Z,6.93
2023-04-06T12:34:42.301Z,6.63
2023-04-06T12:37:12.506Z,6.68
2023-04-06T12:39:41.885Z,7.10
2023-04-06T12:42:23.419Z,7.25
2023-04-06T12:44:50.907Z,7.03
2023-04-06T12:47:19.274Z,7.93
2023-04-06T12:49:48.384Z,7.75
2023-04-06T12:52:18.486Z,7.20
2023-04-06T12:54:51.305Z,8.13
2023-04-06T12:57:19.676Z,8.10
2023-04-06T12:59:51.516Z,7.97
2023-04-06T13:02:22.509Z,7.57
2023-04-06T13:04:51.305Z,7.75
2023-04-06T13:07:22.248Z,8.20
2023-04-06T13:09:51.065Z,7.75
2023-04-06T13:12:20.893Z,7.78
2023-04-06T13:14:52.133Z,8.93
2023-04-06T13:17:20.117Z,8.35
2023-04-06T13:19:48.955Z,8.38
2023-04-06T13:22:17.374Z,9.20
2023-04-06T13:24:45.039Z,9.02
2023-04-06T13:27:12.902Z,9.40
2023-04-06T13:29:41.733Z,9.70
2023-04-06T13:32:11.464Z,9.52
2023-04-06T13:34:39.123Z,10.40
2023-04-06T13:37:07.843Z,10.20
2023-04-06T13:39:36.468Z,10.65
2023-04-06T13:42:04.305Z,12.00
2023-04-06T13:44:32.123Z,11.38
2023-04-06T13:46:59.801Z,10.95
2023-04-06T13:49:27.915Z,10.75
2023-04-06T13:51:59.727Z,10.00
2023-04-06T13:54:29.218Z,10.90
2023-04-06T13:56:57.792Z,11.35
2023-04-06T13:59:25.769Z,11.52
2023-04-06T14:01:53.783Z,11.98
2023-04-06T14:04:21.549Z,10.98
2023-04-06T14:06:49.754Z,12.65
2023-04-06T14:09:19.179Z,10.68
2023-04-06T14:11:49.602Z,11.45
2023-04-06T14:14:19.457Z,11.95
2023-04-06T14:16:49.692Z,12.18
2023-04-06T14:19:19.185Z,12.25
2023-04-06T14:21:48.631Z,12.05
2023-04-06T14:24:17.995Z,12.95
2023-04-06T14:26:45.446Z,12.63
2023-04-06T14:29:13.152Z,11.48
2023-04-06T14:31:43.065Z,11.15
2023-04-06T14:34:11.522Z,11.40
2023-04-06T14:36:40.652Z,11.82
2023-04-06T14:39:10.909Z,12.00
2023-04-06T14:41:39.276Z,11.50
2023-04-06T14:44:07.468Z,11.70
2023-04-06T14:46:35.475Z,11.15
2023-04-06T14:49:21.984Z,11.45
2023-04-06T14:52:01.768Z,10.45
2023-04-06T14:54:29.852Z,11.25
2023-04-06T14:56:57.972Z,10.57
2023-04-06T14:59:25.850Z,11.30
2023-04-06T15:01:55.106Z,11.10
2023-04-06T15:04:23.088Z,11.63
2023-04-06T15:06:54.287Z,12.02
2023-04-06T15:09:22.946Z,12.18
2023-04-06T15:11:51.006Z,12.95
2023-04-06T15:14:21.951Z,11.50
2023-04-06T15:16:49.897Z,12.38
2023-04-06T15:19:20.881Z,12.15
2023-04-06T15:21:51.592Z,13.05
2023-04-06T15:24:19.296Z,12.27
2023-04-06T15:26:49.301Z,13.27
2023-04-06T15:31:49.439Z,12.40
2023-04-06T15:34:21.639Z,12.95
2023-04-06T15:36:51.992Z,13.70
2023-04-06T15:39:25.617Z,14.18
2023-04-06T15:41:53.358Z,14.52
2023-04-06T15:44:27.704Z,15.45
2023-04-06T15:46:56.043Z,15.25
2023-04-06T15:49:23.653Z,16.08
2023-04-06T15:51:52.687Z,15.48
2023-04-06T15:54:21.458Z,16.08
2023-04-06T15:56:50.696Z,15.65
2023-04-06T15:59:21.483Z,16.13
2023-04-06T16:04:17.924Z,15.93
2023-04-06T16:06:45.778Z,16.92
2023-04-06T16:09:13.479Z,16.98
2023-04-06T16:11:41.537Z,16.40
2023-04-06T16:14:09.357Z,16.92
2023-04-06T16:16:37.477Z,17.65
2023-04-06T16:19:05.111Z,17.52
2023-04-06T16:21:33.349Z,17.52
2023-04-06T16:24:03.648Z,15.93
2023-04-06T16:26:32.135Z,17.10
2023-04-06T16:29:00.208Z,17.05
2023-04-06T16:31:31.422Z,16.40
2023-04-06T16:33:59.252Z,16.58
2023-04-06T16:36:28.552Z,15.57
2023-04-06T16:38:57.439Z,16.70
2023-04-06T16:41:25.530Z,15.70
2023-04-06T16:43:54.147Z,16.80
2023-04-06T16:46:21.863Z,17.80
2023-04-06T16:48:49.546Z,16.80
2023-04-06T16:51:18.907Z,16.60
2023-04-06T16:53:50.024Z,15.32
2023-04-06T16:56:18.491Z,16.35
2023-04-06T16:58:48.267Z,16.27
2023-04-06T17:01:22.990Z,16.00
2023-04-06T17:03:50.929Z,15.95
2023-04-06T17:06:28.024Z,15.27
2023-04-06T17:08:55.763Z,15.05
2023-04-06T17:11:28.596Z,15.43
2023-04-06T17:14:02.160Z,14.98
2023-04-06T17:16:30.449Z,15.05
2023-04-06T17:19:02.754Z,14.05
2023-04-06T17:21:30.996Z,14.70
2023-04-06T17:23:58.659Z,15.23
2023-04-06T17:26:26.414Z,14.68
2023-04-06T17:28:59.780Z,14.18
2023-04-06T17:31:28.950Z,14.40
2023-04-06T17:33:56.608Z,14.10
2023-04-06T17:36:24.716Z,14.15
2023-04-06T17:38:53.023Z,15.00
2023-04-06T17:41:21.664Z,15.38
2023-04-06T17:43:51.690Z,14.88
2023-04-06T17:50:09.207Z,14.10
2023-04-06T17:52:37.691Z,14.05
2023-04-06T17:55:06.011Z,15.13
2023-04-06T17:57:33.597Z,14.07
2023-04-06T18:00:01.428Z,14.20
2023-04-06T18:02:29.243Z,14.00
2023-04-06T18:04:56.951Z,13.32
2023-04-06T18:07:24.582Z,13.88
2023-04-06T18:09:52.314Z,12.90
2023-04-06T18:12:19.968Z,12.45
2023-04-06T18:14:48.592Z,12.55
2023-04-06T18:17:17.268Z,12.40
2023-04-06T18:19:45.146Z,13.15
2023-04-06T18:22:13.178Z,12.25
2023-04-06T18:24:42.711Z,12.95
2023-04-06T18:27:13.245Z,12.43
2023-04-06T18:29:41.161Z,13.10
2023-04-06T18:32:08.733Z,12.57
2023-04-06T18:34:37.661Z,12.77
2023-04-06T18:37:06.102Z,12.90
2023-04-06T18:39:34.246Z,12.82
2023-04-06T18:42:03.032Z,12.88
2023-04-06T18:44:32.326Z,13.27
2023-04-06T18:47:00.647Z,12.90
2023-04-06T18:49:28.251Z,12.93
2023-04-06T18:51:57.676Z,12.32
2023-04-06T18:54:25.788Z,13.00
2023-04-06T18:56:53.817Z,12.00
2023-04-06T18:59:21.648Z,12.52
2023-04-06T19:01:53.954Z,12.88
2023-04-06T19:04:22.550Z,12.43
2023-04-06T19:06:50.928Z,12.07
2023-04-06T19:09:20.267Z,12.55
2023-04-06T19:11:48.770Z,12.60
2023-04-06T19:14:17.326Z,12.18
2023-04-06T19:16:52.405Z,12.93
2023-04-06T19:19:20.874Z,12.55
2023-04-06T19:21:51.923Z,11.35
2023-04-06T19:24:19.919Z,12.25
2023-04-06T19:26:48.533Z,11.85
2023-04-06T19:29:19.225Z,11.57
2023-04-06T19:31:47.165Z,11.90
2023-04-06T19:34:18.759Z,11.68
2023-04-06T19:36:48.976Z,11.70
2023-04-06T19:39:20.949Z,12.57
2023-04-06T19:41:50.462Z,11.30
2023-04-06T19:44:18.746Z,11.32
2023-04-06T19:46:49.924Z,11.95
2023-04-06T19:49:19.837Z,11.60
2023-04-06T19:51:50.619Z,12.07
2023-04-06T19:54:22.257Z,12.18
2023-04-06T19:56:53.229Z,12.40
2023-04-06T19:59:24.310Z,13.50
2023-04-06T20:01:52.312Z,12.98
2023-04-06T20:04:20.664Z,13.70
2023-04-06T20:06:50.178Z,13.68
2023-04-06T20:09:18.655Z,13.85
2023-04-06T20:11:51.796Z,13.90
2023-04-06T20:14:24.952Z,15.00
2023-04-06T20:16:53.308Z,15.32
2023-04-06T20:19:21.041Z,14.85
2023-04-06T20:21:49.477Z,16.25
2023-04-06T20:24:21.423Z,16.60
2023-04-06T20:26:52.997Z,16.88
2023-04-06T20:29:21.250Z,17.67
2023-04-06T20:31:49.942Z,17.88
2023-04-06T20:34:19.978Z,16.88
2023-04-06T20:36:51.089Z,17.35
2023-04-06T20:39:19.969Z,17.70
2023-04-06T20:41:48.750Z,16.63
2023-04-06T20:44:17.745Z,17.33
2023-04-06T20:46:45.992Z,17.58
2023-04-06T20:49:19.053Z,17.83
2023-04-06T20:51:52.618Z,17.55
2023-04-06T20:54:20.991Z,18.45
2023-04-06T20:56:52.324Z,18.42
2023-04-06T20:59:20.193Z,19.30
2023-04-06T21:01:49.363Z,19.40
2023-04-06T21:04:18.826Z,19.55
2023-04-06T21:06:47.340Z,18.57
2023-04-06T21:09:15.209Z,18.65
2023-04-06T21:11:43.265Z,19.75
2023-04-06T21:14:11.094Z,20.10
2023-04-06T21:16:39.715Z,20.08
2023-04-06T21:19:08.248Z,20.25
2023-04-06T21:21:35.939Z,19.83
2023-04-06T21:24:03.849Z,20.73
2023-04-06T21:26:31.503Z,20.67
2023-04-06T21:28:59.237Z,21.52
2023-04-06T21:31:26.976Z,21.65
2023-04-06T21:33:54.799Z,21.90
2023-04-06T21:36:22.610Z,22.15
2023-04-06T21:38:51.106Z,22.00
2023-04-06T21:41:20.989Z,23.55
2023-04-06T21:43:51.781Z,23.25
2023-04-06T21:46:20.018Z,23.77
2023-04-06T21:48:48.571Z,23.00
2023-04-06T21:51:23.482Z,23.35
2023-04-06T21:53:53.549Z,23.55
2023-04-06T21:56:26.337Z,23.15
2023-04-06T21:58:54.401Z,22.77
2023-04-06T22:01:22.088Z,24.13
2023-04-06T22:03:53.204Z,26.17
2023-04-06T22:06:23.127Z,28.48
2023-04-06T22:08:50.747Z,30.20
2023-04-06T22:11:23.018Z,30.25
2023-04-06T22:13:50.880Z,31.20
2023-04-06T22:16:19.683Z,31.05
2023-04-06T22:18:48.475Z,30.63
2023-04-06T22:21:15.990Z,32.88
2023-04-06T22:23:44.702Z,33.90
2023-04-06T22:26:12.703Z,34.05
2023-04-06T22:28:40.343Z,33.80
2023-04-06T22:31:07.886Z,33.92
2023-04-06T22:33:35.687Z,32.28
2023-04-06T22:36:03.270Z,34.75
2023-04-06T22:38:31.060Z,35.55
2023-04-06T22:40:58.747Z,34.42
2023-04-06T22:43:26.348Z,34.78
2023-04-06T22:45:55.532Z,37.67
2023-04-06T22:48:23.483Z,38.58
2023-04-06T22:50:51.415Z,39.00
2023-04-06T22:53:19.575Z,37.38
2023-04-06T22:55:50.754Z,37.17
2023-04-06T22:58:21.951Z,38.45
2023-04-06T23:00:50.025Z,38.30
2023-04-06T23:03:18.823Z,36.92
2023-04-06T23:05:48.359Z,34.95
2023-04-06T23:08:17.374Z,33.10
2023-04-06T23:10:45.079Z,33.28
2023-04-06T23:13:13.020Z,31.50
2023-04-06T23:15:44.003Z,30.88
2023-04-06T23:18:12.275Z,28.33
2023-04-06T23:20:40.579Z,29.13
2023-04-06T23:23:08.406Z,26.20
2023-04-06T23:25:36.047Z,76.30
2023-04-06T23:28:03.937Z,80.13
2023-04-06T23:30:31.885Z,93.45
2023-04-06T23:33:01.258Z,69.93
2023-04-06T23:35:29.057Z,66.28
2023-04-06T23:37:56.765Z,22.45
2023-04-06T23:40:25.413Z,21.30
2023-04-06T23:42:52.982Z,21.05
2023-04-06T23:45:20.848Z,22.48
2023-04-06T23:47:52.698Z,20.77
2023-04-06T23:50:21.425Z,18.85
2023-04-06T23:52:49.769Z,18.42
2023-04-06T23:55:18.573Z,18.98
2023-04-06T23:57:47.436Z,17.45
